sensor_id;sensor_type;location;lat;lon;timestamp;P1;durP1;ratioP1;P2;durP2;ratioP2
20476;SDS011;10397;50.948;11.092;2022-12-18T00:00:43;3.60;;;1.80;;
20476;SDS011;10397;50.948;11.092;2022-12-18T00:03:13;2.27;;;0.90;;
20476;SDS011;10397;50.948;11.092;2022-12-18T00:05:50;2.23;;;1.03;;
20476;SDS011;10397;50.948;11.092;2022-12-18T00:08:17;6.20;;;1.00;;
20476;SDS011;10397;50.948;11.092;2022-12-18T00:10:48;4.72;;;1.27;;
20476;SDS011;10397;50.948;11.092;2022-12-18T00:13:19;3.33;;;1.27;;
20476;SDS011;10397;50.948;11.092;2022-12-18T00:15:50;2.90;;;1.10;;
20476;SDS011;10397;50.948;11.092;2022-12-18T00:18:21;2.67;;;1.10;;
20476;SDS011;10397;50.948;11.092;2022-12-18T00:20:51;2.83;;;0.90;;
20476;SDS011;10397;50.948;11.092;2022-12-18T00:23:23;5.40;;;1.80;;
20476;SDS011;10397;50.948;11.092;2022-12-18T00:25:53;5.70;;;1.00;;
20476;SDS011;10397;50.948;11.092;2022-12-18T00:28:24;2.70;;;1.20;;
20476;SDS011;10397;50.948;11.092;2022-12-18T00:31:02;2.70;;;0.85;;
20476;SDS011;10397;50.948;11.092;2022-12-18T00:33:29;2.13;;;0.90;;
20476;SDS011;10397;50.948;11.092;2022-12-18T00:36:03;2.60;;;1.05;;
20476;SDS011;10397;50.948;11.092;2022-12-18T00:38:33;5.13;;;1.20;;
20476;SDS011;10397;50.948;11.092;2022-12-18T00:41:04;3.55;;;1.30;;
20476;SDS011;10397;50.948;11.092;2022-12-18T00:43:34;3.02;;;1.15;;
20476;SDS011;10397;50.948;11.092;2022-12-18T00:46:05;4.10;;;1.10;;
20476;SDS011;10397;50.948;11.092;2022-12-18T00:48:36;2.65;;;1.22;;
20476;SDS011;10397;50.948;11.092;2022-12-18T00:51:07;2.20;;;1.10;;
20476;SDS011;10397;50.948;11.092;2022-12-18T00:53:38;2.55;;;1.32;;
20476;SDS011;10397;50.948;11.092;2022-12-18T00:56:10;3.47;;;1.17;;
20476;SDS011;10397;50.948;11.092;2022-12-18T00:58:41;3.27;;;1.27;;
20476;SDS011;10397;50.948;11.092;2022-12-18T01:01:11;3.80;;;0.87;;
20476;SDS011;10397;50.948;11.092;2022-12-18T01:03:42;5.05;;;1.00;;
20476;SDS011;10397;50.948;11.092;2022-12-18T01:06:15;2.40;;;1.17;;
20476;SDS011;10397;50.948;11.092;2022-12-18T01:08:46;3.87;;;1.25;;
20476;SDS011;10397;50.948;11.092;2022-12-18T01:11:18;2.30;;;1.00;;
20476;SDS011;10397;50.948;11.092;2022-12-18T01:13:48;3.85;;;1.30;;
20476;SDS011;10397;50.948;11.092;2022-12-18T01:16:19;3.05;;;0.80;;
20476;SDS011;10397;50.948;11.092;2022-12-18T01:18:53;2.20;;;1.10;;
20476;SDS011;10397;50.948;11.092;2022-12-18T01:21:24;2.90;;;1.30;;
20476;SDS011;10397;50.948;11.092;2022-12-18T01:23:55;1.87;;;1.02;;
20476;SDS011;10397;50.948;11.092;2022-12-18T01:26:26;4.55;;;1.37;;
20476;SDS011;10397;50.948;11.092;2022-12-18T01:28:57;3.53;;;1.33;;
20476;SDS011;10397;50.948;11.092;2022-12-18T01:31:29;2.52;;;1.22;;
20476;SDS011;10397;50.948;11.092;2022-12-18T01:34:02;3.67;;;1.30;;
20476;SDS011;10397;50.948;11.092;2022-12-18T01:36:33;3.33;;;1.17;;
20476;SDS011;10397;50.948;11.092;2022-12-18T01:39:04;3.07;;;1.07;;
20476;SDS011;10397;50.948;11.092;2022-12-18T01:41:34;1.95;;;1.00;;
20476;SDS011;10397;50.948;11.092;2022-12-18T01:50:50;7.60;;;1.50;;
20476;SDS011;10397;50.948;11.092;2022-12-18T01:52:53;2.60;;;1.10;;
20476;SDS011;10397;50.948;11.092;2022-12-18T01:55:23;2.02;;;1.00;;
20476;SDS011;10397;50.948;11.092;2022-12-18T01:57:54;2.20;;;0.83;;
20476;SDS011;10397;50.948;11.092;2022-12-18T02:00:24;1.90;;;0.95;;
20476;SDS011;10397;50.948;11.092;2022-12-18T02:02:54;5.77;;;0.80;;
20476;SDS011;10397;50.948;11.092;2022-12-18T02:13:40;2.40;;;0.80;;
20476;SDS011;10397;50.948;11.092;2022-12-18T02:19:03;2.07;;;0.80;;
20476;SDS011;10397;50.948;11.092;2022-12-18T02:24:17;2.53;;;1.03;;
20476;SDS011;10397;50.948;11.092;2022-12-18T02:26:50;2.10;;;0.97;;
20476;SDS011;10397;50.948;11.092;2022-12-18T02:29:22;2.80;;;1.20;;
20476;SDS011;10397;50.948;11.092;2022-12-18T02:31:53;2.10;;;0.90;;
20476;SDS011;10397;50.948;11.092;2022-12-18T02:34:24;3.97;;;1.03;;
20476;SDS011;10397;50.948;11.092;2022-12-18T02:36:54;1.87;;;0.70;;
20476;SDS011;10397;50.948;11.092;2022-12-18T02:39:25;3.52;;;1.27;;
20476;SDS011;10397;50.948;11.092;2022-12-18T02:41:57;4.45;;;1.37;;
20476;SDS011;10397;50.948;11.092;2022-12-18T02:44:27;3.20;;;1.20;;
20476;SDS011;10397;50.948;11.092;2022-12-18T02:46:58;2.85;;;1.10;;
20476;SDS011;10397;50.948;11.092;2022-12-18T02:49:36;3.30;;;1.55;;
20476;SDS011;10397;50.948;11.092;2022-12-18T02:52:22;3.83;;;1.57;;
20476;SDS011;10397;50.948;11.092;2022-12-18T02:57:54;4.53;;;1.60;;
20476;SDS011;10397;50.948;11.092;2022-12-18T03:00:23;3.00;;;1.60;;
20476;SDS011;10397;50.948;11.092;2022-12-18T03:02:58;3.25;;;1.50;;
20476;SDS011;10397;50.948;11.092;2022-12-18T03:06:00;3.93;;;1.80;;
20476;SDS011;10397;50.948;11.092;2022-12-18T03:08:22;5.87;;;1.73;;
20476;SDS011;10397;50.948;11.092;2022-12-18T03:10:57;2.80;;;1.40;;
20476;SDS011;10397;50.948;11.092;2022-12-18T03:13:27;3.73;;;1.60;;
20476;SDS011;10397;50.948;11.092;2022-12-18T03:16:17;3.40;;;1.50;;
20476;SDS011;10397;50.948;11.092;2022-12-18T03:19:06;5.53;;;1.52;;
20476;SDS011;10397;50.948;11.092;2022-12-18T03:21:27;4.47;;;1.80;;
20476;SDS011;10397;50.948;11.092;2022-12-18T03:23:56;5.87;;;1.62;;
20476;SDS011;10397;50.948;11.092;2022-12-18T03:26:27;2.37;;;1.50;;
20476;SDS011;10397;50.948;11.092;2022-12-18T03:29:02;2.00;;;1.10;;
20476;SDS011;10397;50.948;11.092;2022-12-18T03:34:05;3.97;;;1.70;;
20476;SDS011;10397;50.948;11.092;2022-12-18T03:36:36;4.05;;;1.60;;
20476;SDS011;10397;50.948;11.092;2022-12-18T03:39:07;3.75;;;1.47;;
20476;SDS011;10397;50.948;11.092;2022-12-18T03:41:43;2.58;;;1.42;;
20476;SDS011;10397;50.948;11.092;2022-12-18T03:46:45;3.53;;;1.50;;
20476;SDS011;10397;50.948;11.092;2022-12-18T03:49:50;3.57;;;1.50;;
20476;SDS011;10397;50.948;11.092;2022-12-18T03:54:55;4.83;;;1.27;;
20476;SDS011;10397;50.948;11.092;2022-12-18T03:57:27;3.98;;;1.22;;
20476;SDS011;10397;50.948;11.092;2022-12-18T03:59:59;2.15;;;1.10;;
20476;SDS011;10397;50.948;11.092;2022-12-18T04:02:28;2.17;;;1.30;;
20476;SDS011;10397;50.948;11.092;2022-12-18T04:05:00;4.77;;;1.70;;
20476;SDS011;10397;50.948;11.092;2022-12-18T04:07:30;2.75;;;1.07;;
20476;SDS011;10397;50.948;11.092;2022-12-18T04:10:01;2.95;;;1.22;;
20476;SDS011;10397;50.948;11.092;2022-12-18T04:12:31;4.43;;;1.20;;
20476;SDS011;10397;50.948;11.092;2022-12-18T04:15:02;2.70;;;1.10;;
20476;SDS011;10397;50.948;11.092;2022-12-18T04:17:33;3.35;;;1.45;;
20476;SDS011;10397;50.948;11.092;2022-12-18T04:20:04;3.75;;;1.00;;
20476;SDS011;10397;50.948;11.092;2022-12-18T04:22:35;4.87;;;1.57;;
20476;SDS011;10397;50.948;11.092;2022-12-18T04:25:07;3.30;;;1.32;;
20476;SDS011;10397;50.948;11.092;2022-12-18T04:27:38;5.35;;;1.00;;
20476;SDS011;10397;50.948;11.092;2022-12-18T04:30:09;4.53;;;1.10;;
20476;SDS011;10397;50.948;11.092;2022-12-18T04:32:40;2.83;;;1.37;;
20476;SDS011;10397;50.948;11.092;2022-12-18T04:35:11;4.60;;;1.45;;
20476;SDS011;10397;50.948;11.092;2022-12-18T04:37:41;4.72;;;1.32;;
20476;SDS011;10397;50.948;11.092;2022-12-18T04:40:12;5.00;;;1.30;;
20476;SDS011;10397;50.948;11.092;2022-12-18T04:42:43;4.60;;;1.65;;
20476;SDS011;10397;50.948;11.092;2022-12-18T04:45:13;3.10;;;1.47;;
20476;SDS011;10397;50.948;11.092;2022-12-18T04:47:44;23.18;;;2.02;;
20476;SDS011;10397;50.948;11.092;2022-12-18T04:50:15;2.45;;;1.47;;
20476;SDS011;10397;50.948;11.092;2022-12-18T04:52:46;3.02;;;1.50;;
20476;SDS011;10397;50.948;11.092;2022-12-18T04:55:18;2.83;;;1.45;;
20476;SDS011;10397;50.948;11.092;2022-12-18T04:57:48;3.43;;;1.20;;
20476;SDS011;10397;50.948;11.092;2022-12-18T05:00:19;10.43;;;1.70;;
20476;SDS011;10397;50.948;11.092;2022-12-18T05:02:50;3.87;;;1.80;;
20476;SDS011;10397;50.948;11.092;2022-12-18T05:05:20;3.83;;;1.55;;
20476;SDS011;10397;50.948;11.092;2022-12-18T05:07:52;5.20;;;1.60;;
20476;SDS011;10397;50.948;11.092;2022-12-18T05:10:22;2.70;;;1.22;;
20476;SDS011;10397;50.948;11.092;2022-12-18T05:12:53;3.47;;;1.80;;
20476;SDS011;10397;50.948;11.092;2022-12-18T05:15:29;2.97;;;1.50;;
20476;SDS011;10397;50.948;11.092;2022-12-18T05:18:01;3.70;;;1.00;;
20476;SDS011;10397;50.948;11.092;2022-12-18T05:20:31;3.37;;;1.37;;
20476;SDS011;10397;50.948;11.092;2022-12-18T05:23:02;2.45;;;1.25;;
20476;SDS011;10397;50.948;11.092;2022-12-18T05:25:32;5.58;;;1.25;;
20476;SDS011;10397;50.948;11.092;2022-12-18T05:28:04;5.97;;;1.40;;
20476;SDS011;10397;50.948;11.092;2022-12-18T05:30:34;2.40;;;1.00;;
20476;SDS011;10397;50.948;11.092;2022-12-18T05:33:05;3.67;;;1.60;;
20476;SDS011;10397;50.948;11.092;2022-12-18T05:35:35;2.08;;;0.85;;
20476;SDS011;10397;50.948;11.092;2022-12-18T05:38:06;2.72;;;1.32;;
20476;SDS011;10397;50.948;11.092;2022-12-18T05:40:37;3.73;;;1.63;;
20476;SDS011;10397;50.948;11.092;2022-12-18T05:43:08;7.22;;;1.50;;
20476;SDS011;10397;50.948;11.092;2022-12-18T05:45:39;3.67;;;1.52;;
20476;SDS011;10397;50.948;11.092;2022-12-18T05:48:10;3.15;;;1.32;;
20476;SDS011;10397;50.948;11.092;2022-12-18T05:50:41;3.30;;;1.40;;
20476;SDS011;10397;50.948;11.092;2022-12-18T05:53:12;3.08;;;1.62;;
20476;SDS011;10397;50.948;11.092;2022-12-18T05:55:43;3.85;;;2.10;;
20476;SDS011;10397;50.948;11.092;2022-12-18T05:58:14;3.85;;;1.75;;
20476;SDS011;10397;50.948;11.092;2022-12-18T06:00:45;6.80;;;1.98;;
20476;SDS011;10397;50.948;11.092;2022-12-18T06:03:15;4.67;;;2.30;;
20476;SDS011;10397;50.948;11.092;2022-12-18T06:05:46;4.63;;;2.30;;
20476;SDS011;10397;50.948;11.092;2022-12-18T06:08:17;7.33;;;3.27;;
20476;SDS011;10397;50.948;11.092;2022-12-18T06:10:52;8.68;;;3.70;;
20476;SDS011;10397;50.948;11.092;2022-12-18T06:13:23;10.95;;;3.67;;
20476;SDS011;10397;50.948;11.092;2022-12-18T06:15:54;5.95;;;3.15;;
20476;SDS011;10397;50.948;11.092;2022-12-18T06:18:25;6.00;;;3.15;;
20476;SDS011;10397;50.948;11.092;2022-12-18T06:20:56;8.35;;;3.45;;
20476;SDS011;10397;50.948;11.092;2022-12-18T06:23:26;7.40;;;3.13;;
20476;SDS011;10397;50.948;11.092;2022-12-18T06:25:57;8.35;;;3.22;;
20476;SDS011;10397;50.948;11.092;2022-12-18T06:28:28;6.22;;;2.98;;
20476;SDS011;10397;50.948;11.092;2022-12-18T06:30:59;8.77;;;4.00;;
20476;SDS011;10397;50.948;11.092;2022-12-18T06:33:30;12.05;;;6.05;;
20476;SDS011;10397;50.948;11.092;2022-12-18T06:36:07;16.48;;;8.60;;
20476;SDS011;10397;50.948;11.092;2022-12-18T06:38:37;21.20;;;11.20;;
20476;SDS011;10397;50.948;11.092;2022-12-18T06:41:13;28.85;;;12.93;;
20476;SDS011;10397;50.948;11.092;2022-12-18T06:43:39;24.40;;;11.75;;
20476;SDS011;10397;50.948;11.092;2022-12-18T06:46:10;16.50;;;9.13;;
20476;SDS011;10397;50.948;11.092;2022-12-18T06:48:40;17.57;;;10.08;;
20476;SDS011;10397;50.948;11.092;2022-12-18T06:51:11;14.90;;;8.60;;
20476;SDS011;10397;50.948;11.092;2022-12-18T06:53:42;18.30;;;8.50;;
20476;SDS011;10397;50.948;11.092;2022-12-18T06:56:13;11.10;;;6.53;;
20476;SDS011;10397;50.948;11.092;2022-12-18T06:58:43;7.40;;;5.80;;
20476;SDS011;10397;50.948;11.092;2022-12-18T07:01:15;15.98;;;9.85;;
20476;SDS011;10397;50.948;11.092;2022-12-18T07:03:46;16.27;;;8.85;;
20476;SDS011;10397;50.948;11.092;2022-12-18T07:06:17;12.47;;;5.37;;
20476;SDS011;10397;50.948;11.092;2022-12-18T07:08:47;7.62;;;5.45;;
20476;SDS011;10397;50.948;11.092;2022-12-18T07:11:18;11.53;;;6.72;;
20476;SDS011;10397;50.948;11.092;2022-12-18T07:13:49;9.53;;;7.13;;
20476;SDS011;10397;50.948;11.092;2022-12-18T07:16:20;12.25;;;8.35;;
20476;SDS011;10397;50.948;11.092;2022-12-18T07:18:51;14.60;;;8.50;;
20476;SDS011;10397;50.948;11.092;2022-12-18T07:21:23;13.70;;;8.13;;
20476;SDS011;10397;50.948;11.092;2022-12-18T07:23:53;16.23;;;9.13;;
20476;SDS011;10397;50.948;11.092;2022-12-18T07:26:26;21.30;;;10.40;;
20476;SDS011;10397;50.948;11.092;2022-12-18T07:28:57;13.60;;;8.18;;
20476;SDS011;10397;50.948;11.092;2022-12-18T07:31:28;15.40;;;9.80;;
20476;SDS011;10397;50.948;11.092;2022-12-18T07:33:58;15.75;;;7.95;;
20476;SDS011;10397;50.948;11.092;2022-12-18T07:36:29;13.70;;;7.15;;
20476;SDS011;10397;50.948;11.092;2022-12-18T07:39:00;13.08;;;7.33;;
20476;SDS011;10397;50.948;11.092;2022-12-18T07:41:31;18.95;;;8.63;;
20476;SDS011;10397;50.948;11.092;2022-12-18T07:44:02;15.80;;;7.70;;
20476;SDS011;10397;50.948;11.092;2022-12-18T07:46:32;14.43;;;9.05;;
20476;SDS011;10397;50.948;11.092;2022-12-18T07:49:03;16.13;;;10.87;;
20476;SDS011;10397;50.948;11.092;2022-12-18T07:51:34;18.17;;;11.55;;
20476;SDS011;10397;50.948;11.092;2022-12-18T07:54:04;17.00;;;10.85;;
20476;SDS011;10397;50.948;11.092;2022-12-18T07:56:34;17.80;;;10.45;;
20476;SDS011;10397;50.948;11.092;2022-12-18T07:59:05;25.95;;;11.80;;
20476;SDS011;10397;50.948;11.092;2022-12-18T08:01:36;16.70;;;10.70;;
20476;SDS011;10397;50.948;11.092;2022-12-18T08:04:08;20.10;;;10.65;;
20476;SDS011;10397;50.948;11.092;2022-12-18T08:06:39;20.65;;;10.35;;
20476;SDS011;10397;50.948;11.092;2022-12-18T08:09:10;17.37;;;10.63;;
20476;SDS011;10397;50.948;11.092;2022-12-18T08:11:41;19.02;;;10.40;;
20476;SDS011;10397;50.948;11.092;2022-12-18T08:14:12;16.55;;;10.93;;
20476;SDS011;10397;50.948;11.092;2022-12-18T08:16:43;20.90;;;11.10;;
20476;SDS011;10397;50.948;11.092;2022-12-18T08:19:13;17.43;;;10.97;;
20476;SDS011;10397;50.948;11.092;2022-12-18T08:21:44;18.07;;;10.63;;
20476;SDS011;10397;50.948;11.092;2022-12-18T08:24:15;20.68;;;11.68;;
20476;SDS011;10397;50.948;11.092;2022-12-18T08:26:46;19.48;;;11.35;;
20476;SDS011;10397;50.948;11.092;2022-12-18T08:29:17;22.60;;;10.65;;
20476;SDS011;10397;50.948;11.092;2022-12-18T08:31:47;17.10;;;11.00;;
20476;SDS011;10397;50.948;11.092;2022-12-18T08:34:18;21.57;;;12.07;;
20476;SDS011;10397;50.948;11.092;2022-12-18T08:36:49;20.43;;;12.40;;
20476;SDS011;10397;50.948;11.092;2022-12-18T08:39:19;19.30;;;11.40;;
20476;SDS011;10397;50.948;11.092;2022-12-18T08:41:50;17.23;;;10.53;;
20476;SDS011;10397;50.948;11.092;2022-12-18T08:44:38;23.33;;;13.50;;
20476;SDS011;10397;50.948;11.092;2022-12-18T08:47:09;22.58;;;13.40;;
20476;SDS011;10397;50.948;11.092;2022-12-18T08:49:39;24.40;;;13.10;;
20476;SDS011;10397;50.948;11.092;2022-12-18T08:52:10;19.70;;;11.85;;
20476;SDS011;10397;50.948;11.092;2022-12-18T08:54:40;24.55;;;13.20;;
20476;SDS011;10397;50.948;11.092;2022-12-18T08:57:11;24.82;;;14.10;;
20476;SDS011;10397;50.948;11.092;2022-12-18T08:59:42;25.85;;;14.15;;
20476;SDS011;10397;50.948;11.092;2022-12-18T09:02:13;19.17;;;12.23;;
20476;SDS011;10397;50.948;11.092;2022-12-18T09:04:46;26.77;;;13.85;;
20476;SDS011;10397;50.948;11.092;2022-12-18T09:07:15;25.85;;;14.53;;
20476;SDS011;10397;50.948;11.092;2022-12-18T09:09:46;21.23;;;13.90;;
20476;SDS011;10397;50.948;11.092;2022-12-18T09:12:17;29.20;;;14.30;;
20476;SDS011;10397;50.948;11.092;2022-12-18T09:14:48;24.02;;;13.43;;
20476;SDS011;10397;50.948;11.092;2022-12-18T09:17:19;26.15;;;15.78;;
20476;SDS011;10397;50.948;11.092;2022-12-18T09:19:49;29.97;;;17.83;;
20476;SDS011;10397;50.948;11.092;2022-12-18T09:22:20;22.95;;;14.33;;
20476;SDS011;10397;50.948;11.092;2022-12-18T09:24:51;31.52;;;15.75;;
20476;SDS011;10397;50.948;11.092;2022-12-18T09:27:22;24.18;;;15.18;;
20476;SDS011;10397;50.948;11.092;2022-12-18T09:29:54;24.18;;;14.60;;
20476;SDS011;10397;50.948;11.092;2022-12-18T09:32:25;26.77;;;16.15;;
20476;SDS011;10397;50.948;11.092;2022-12-18T09:34:56;25.65;;;15.60;;
20476;SDS011;10397;50.948;11.092;2022-12-18T09:37:27;25.50;;;15.45;;
20476;SDS011;10397;50.948;11.092;2022-12-18T09:39:58;23.87;;;13.97;;
20476;SDS011;10397;50.948;11.092;2022-12-18T09:42:28;27.05;;;14.90;;
20476;SDS011;10397;50.948;11.092;2022-12-18T09:44:59;22.65;;;13.20;;
20476;SDS011;10397;50.948;11.092;2022-12-18T09:47:33;24.98;;;13.83;;
20476;SDS011;10397;50.948;11.092;2022-12-18T09:50:03;22.40;;;13.40;;
20476;SDS011;10397;50.948;11.092;2022-12-18T09:52:45;21.65;;;13.45;;
20476;SDS011;10397;50.948;11.092;2022-12-18T09:55:25;24.80;;;14.77;;
20476;SDS011;10397;50.948;11.092;2022-12-18T09:57:53;25.90;;;13.33;;
20476;SDS011;10397;50.948;11.092;2022-12-18T10:00:23;22.07;;;13.35;;
20476;SDS011;10397;50.948;11.092;2022-12-18T10:03:00;27.05;;;14.30;;
20476;SDS011;10397;50.948;11.092;2022-12-18T10:19:59;30.50;;;17.07;;
20476;SDS011;10397;50.948;11.092;2022-12-18T10:22:36;24.67;;;16.33;;
20476;SDS011;10397;50.948;11.092;2022-12-18T10:25:22;27.47;;;16.27;;
20476;SDS011;10397;50.948;11.092;2022-12-18T10:27:53;28.23;;;18.05;;
20476;SDS011;10397;50.948;11.092;2022-12-18T10:30:25;26.07;;;16.77;;
20476;SDS011;10397;50.948;11.092;2022-12-18T10:33:00;28.27;;;17.12;;
20476;SDS011;10397;50.948;11.092;2022-12-18T10:35:27;29.77;;;16.90;;
20476;SDS011;10397;50.948;11.092;2022-12-18T10:40:32;27.25;;;16.87;;
20476;SDS011;10397;50.948;11.092;2022-12-18T10:43:04;25.23;;;16.50;;
20476;SDS011;10397;50.948;11.092;2022-12-18T10:45:43;27.23;;;15.93;;
20476;SDS011;10397;50.948;11.092;2022-12-18T10:48:18;25.60;;;17.23;;
20476;SDS011;10397;50.948;11.092;2022-12-18T10:50:50;29.70;;;18.27;;
20476;SDS011;10397;50.948;11.092;2022-12-18T10:53:26;30.72;;;18.48;;
20476;SDS011;10397;50.948;11.092;2022-12-18T10:55:56;26.87;;;18.23;;
20476;SDS011;10397;50.948;11.092;2022-12-18T11:01:09;31.07;;;17.63;;
20476;SDS011;10397;50.948;11.092;2022-12-18T11:03:39;25.50;;;16.40;;
20476;SDS011;10397;50.948;11.092;2022-12-18T11:06:12;32.90;;;18.45;;
20476;SDS011;10397;50.948;11.092;2022-12-18T11:08:43;40.17;;;19.05;;
20476;SDS011;10397;50.948;11.092;2022-12-18T11:11:20;24.37;;;16.70;;
20476;SDS011;10397;50.948;11.092;2022-12-18T11:13:52;34.03;;;19.53;;
20476;SDS011;10397;50.948;11.092;2022-12-18T11:16:23;34.78;;;20.10;;
20476;SDS011;10397;50.948;11.092;2022-12-18T11:18:54;31.13;;;18.03;;
20476;SDS011;10397;50.948;11.092;2022-12-18T11:21:24;37.17;;;19.65;;
20476;SDS011;10397;50.948;11.092;2022-12-18T11:23:55;29.75;;;18.05;;
20476;SDS011;10397;50.948;11.092;2022-12-18T11:26:33;30.52;;;18.27;;
20476;SDS011;10397;50.948;11.092;2022-12-18T11:29:10;33.38;;;19.10;;
20476;SDS011;10397;50.948;11.092;2022-12-18T11:31:39;34.33;;;18.53;;
20476;SDS011;10397;50.948;11.092;2022-12-18T11:34:29;34.50;;;18.30;;
20476;SDS011;10397;50.948;11.092;2022-12-18T11:36:49;30.97;;;18.97;;
20476;SDS011;10397;50.948;11.092;2022-12-18T11:39:22;33.73;;;20.60;;
20476;SDS011;10397;50.948;11.092;2022-12-18T11:41:56;37.90;;;19.60;;
20476;SDS011;10397;50.948;11.092;2022-12-18T11:44:42;30.37;;;18.27;;
20476;SDS011;10397;50.948;11.092;2022-12-18T11:47:35;34.90;;;20.80;;
20476;SDS011;10397;50.948;11.092;2022-12-18T11:50:17;31.40;;;19.00;;
20476;SDS011;10397;50.948;11.092;2022-12-18T11:52:46;30.67;;;19.03;;
20476;SDS011;10397;50.948;11.092;2022-12-18T11:55:24;32.55;;;19.87;;
20476;SDS011;10397;50.948;11.092;2022-12-18T11:58:17;36.97;;;21.37;;
20476;SDS011;10397;50.948;11.092;2022-12-18T12:00:54;40.23;;;21.60;;
20476;SDS011;10397;50.948;11.092;2022-12-18T12:12:12;41.13;;;21.07;;
20476;SDS011;10397;50.948;11.092;2022-12-18T12:14:59;35.60;;;20.90;;
20476;SDS011;10397;50.948;11.092;2022-12-18T12:20:50;32.00;;;19.02;;
20476;SDS011;10397;50.948;11.092;2022-12-18T12:23:38;37.97;;;21.37;;
20476;SDS011;10397;50.948;11.092;2022-12-18T12:25:51;40.23;;;23.03;;
20476;SDS011;10397;50.948;11.092;2022-12-18T12:31:07;40.03;;;23.57;;
20476;SDS011;10397;50.948;11.092;2022-12-18T12:39:21;37.70;;;22.60;;
20476;SDS011;10397;50.948;11.092;2022-12-18T12:41:50;41.85;;;24.00;;
20476;SDS011;10397;50.948;11.092;2022-12-18T12:44:39;42.40;;;23.20;;
20476;SDS011;10397;50.948;11.092;2022-12-18T12:47:40;41.17;;;22.80;;
20476;SDS011;10397;50.948;11.092;2022-12-18T12:49:48;40.25;;;22.90;;
20476;SDS011;10397;50.948;11.092;2022-12-18T12:52:39;41.90;;;23.55;;
20476;SDS011;10397;50.948;11.092;2022-12-18T12:55:14;38.20;;;22.67;;
20476;SDS011;10397;50.948;11.092;2022-12-18T12:57:47;39.27;;;23.20;;
20476;SDS011;10397;50.948;11.092;2022-12-18T13:00:18;40.53;;;23.10;;
20476;SDS011;10397;50.948;11.092;2022-12-18T13:05:26;41.23;;;22.10;;
20476;SDS011;10397;50.948;11.092;2022-12-18T13:07:57;39.20;;;23.17;;
20476;SDS011;10397;50.948;11.092;2022-12-18T13:10:39;42.37;;;22.17;;
20476;SDS011;10397;50.948;11.092;2022-12-18T13:13:12;38.92;;;21.45;;
20476;SDS011;10397;50.948;11.092;2022-12-18T13:20:45;32.03;;;21.10;;
20476;SDS011;10397;50.948;11.092;2022-12-18T13:25:54;40.77;;;21.60;;
20476;SDS011;10397;50.948;11.092;2022-12-18T13:36:47;32.37;;;19.03;;
20476;SDS011;10397;50.948;11.092;2022-12-18T13:42:41;35.50;;;20.53;;
20476;SDS011;10397;50.948;11.092;2022-12-18T13:44:35;32.20;;;18.90;;
20476;SDS011;10397;50.948;11.092;2022-12-18T13:47:04;35.17;;;18.47;;
20476;SDS011;10397;50.948;11.092;2022-12-18T13:49:39;30.87;;;18.97;;
20476;SDS011;10397;50.948;11.092;2022-12-18T13:52:28;31.83;;;18.80;;
20476;SDS011;10397;50.948;11.092;2022-12-18T13:55:04;33.43;;;19.07;;
20476;SDS011;10397;50.948;11.092;2022-12-18T13:57:37;31.23;;;18.80;;
20476;SDS011;10397;50.948;11.092;2022-12-18T14:02:52;31.57;;;18.67;;
20476;SDS011;10397;50.948;11.092;2022-12-18T14:05:26;34.53;;;18.70;;
20476;SDS011;10397;50.948;11.092;2022-12-18T14:08:10;34.23;;;19.63;;
20476;SDS011;10397;50.948;11.092;2022-12-18T14:10:42;39.10;;;19.47;;
20476;SDS011;10397;50.948;11.092;2022-12-18T14:13:15;38.03;;;20.37;;
20476;SDS011;10397;50.948;11.092;2022-12-18T14:15:43;36.93;;;20.87;;
20476;SDS011;10397;50.948;11.092;2022-12-18T14:18:20;35.27;;;20.17;;
20476;SDS011;10397;50.948;11.092;2022-12-18T14:20:54;37.83;;;19.90;;
20476;SDS011;10397;50.948;11.092;2022-12-18T14:23:27;32.50;;;20.53;;
20476;SDS011;10397;50.948;11.092;2022-12-18T14:26:24;41.00;;;20.93;;
20476;SDS011;10397;50.948;11.092;2022-12-18T14:28:54;44.70;;;21.53;;
20476;SDS011;10397;50.948;11.092;2022-12-18T14:31:28;38.07;;;21.33;;
20476;SDS011;10397;50.948;11.092;2022-12-18T14:33:57;40.20;;;21.77;;
20476;SDS011;10397;50.948;11.092;2022-12-18T14:36:28;37.37;;;21.27;;
20476;SDS011;10397;50.948;11.092;2022-12-18T14:38:59;36.83;;;19.40;;
20476;SDS011;10397;50.948;11.092;2022-12-18T14:41:29;35.13;;;20.17;;
20476;SDS011;10397;50.948;11.092;2022-12-18T14:44:05;36.70;;;19.53;;
20476;SDS011;10397;50.948;11.092;2022-12-18T14:46:37;31.93;;;19.80;;
20476;SDS011;10397;50.948;11.092;2022-12-18T14:49:29;36.00;;;22.13;;
20476;SDS011;10397;50.948;11.092;2022-12-18T14:51:57;41.80;;;20.80;;
20476;SDS011;10397;50.948;11.092;2022-12-18T14:54:29;37.37;;;22.13;;
20476;SDS011;10397;50.948;11.092;2022-12-18T14:57:04;32.57;;;19.93;;
20476;SDS011;10397;50.948;11.092;2022-12-18T14:59:33;33.33;;;20.30;;
20476;SDS011;10397;50.948;11.092;2022-12-18T15:02:08;35.10;;;21.23;;
20476;SDS011;10397;50.948;11.092;2022-12-18T15:04:38;29.67;;;20.03;;
20476;SDS011;10397;50.948;11.092;2022-12-18T15:10:00;36.63;;;20.67;;
20476;SDS011;10397;50.948;11.092;2022-12-18T15:12:20;41.47;;;18.50;;
20476;SDS011;10397;50.948;11.092;2022-12-18T15:15:03;38.30;;;20.30;;
20476;SDS011;10397;50.948;11.092;2022-12-18T15:17:34;33.97;;;19.23;;
20476;SDS011;10397;50.948;11.092;2022-12-18T15:20:09;31.57;;;20.87;;
20476;SDS011;10397;50.948;11.092;2022-12-18T15:22:35;35.37;;;20.50;;
20476;SDS011;10397;50.948;11.092;2022-12-18T15:25:21;33.53;;;20.30;;
20476;SDS011;10397;50.948;11.092;2022-12-18T15:27:36;37.23;;;22.13;;
20476;SDS011;10397;50.948;11.092;2022-12-18T15:32:41;40.17;;;21.23;;
20476;SDS011;10397;50.948;11.092;2022-12-18T15:37:44;62.43;;;32.90;;
20476;SDS011;10397;50.948;11.092;2022-12-18T15:40:18;189.63;;;79.53;;
20476;SDS011;10397;50.948;11.092;2022-12-18T15:42:48;103.80;;;46.33;;
20476;SDS011;10397;50.948;11.092;2022-12-18T15:45:37;129.70;;;60.00;;
20476;SDS011;10397;50.948;11.092;2022-12-18T15:48:29;58.47;;;29.77;;
20476;SDS011;10397;50.948;11.092;2022-12-18T15:50:50;53.40;;;26.37;;
20476;SDS011;10397;50.948;11.092;2022-12-18T15:53:20;38.23;;;22.50;;
20476;SDS011;10397;50.948;11.092;2022-12-18T15:55:51;33.43;;;20.07;;
20476;SDS011;10397;50.948;11.092;2022-12-18T15:58:40;35.13;;;20.47;;
20476;SDS011;10397;50.948;11.092;2022-12-18T16:01:10;40.57;;;22.17;;
20476;SDS011;10397;50.948;11.092;2022-12-18T16:03:40;48.17;;;22.63;;
20476;SDS011;10397;50.948;11.092;2022-12-18T16:06:11;38.93;;;22.60;;
20476;SDS011;10397;50.948;11.092;2022-12-18T16:08:42;36.33;;;21.17;;
20476;SDS011;10397;50.948;11.092;2022-12-18T16:11:31;40.13;;;21.03;;
20476;SDS011;10397;50.948;11.092;2022-12-18T16:14:17;42.27;;;21.57;;
20476;SDS011;10397;50.948;11.092;2022-12-18T16:16:50;39.33;;;21.17;;
20476;SDS011;10397;50.948;11.092;2022-12-18T16:19:19;39.33;;;20.13;;
20476;SDS011;10397;50.948;11.092;2022-12-18T16:21:50;38.27;;;21.67;;
20476;SDS011;10397;50.948;11.092;2022-12-18T16:24:24;42.93;;;23.17;;
20476;SDS011;10397;50.948;11.092;2022-12-18T16:26:53;49.47;;;25.93;;
20476;SDS011;10397;50.948;11.092;2022-12-18T16:29:23;35.57;;;21.87;;
20476;SDS011;10397;50.948;11.092;2022-12-18T16:31:54;42.50;;;21.37;;
20476;SDS011;10397;50.948;11.092;2022-12-18T16:34:25;40.03;;;20.47;;